sensor_id;sensor_type;location;lat;lon;timestamp;temperature;humidity
57576;DHT22;43412;-33.800;150.804;2022-08-11T00:00:12;13.30;99.90
57576;DHT22;43412;-33.800;150.804;2022-08-11T00:02:52;13.50;99.90
57576;DHT22;43412;-33.800;150.804;2022-08-11T00:05:21;13.60;99.90
57576;DHT22;43412;-33.800;150.804;2022-08-11T00:07:56;13.70;99.90
57576;DHT22;43412;-33.800;150.804;2022-08-11T00:10:27;13.70;99.90
57576;DHT22;43412;-33.800;150.804;2022-08-11T00:13:01;13.80;99.90
57576;DHT22;43412;-33.800;150.804;2022-08-11T00:15:42;13.90;99.90
57576;DHT22;43412;-33.800;150.804;2022-08-11T00:18:11;14.00;99.90
57576;DHT22;43412;-33.800;150.804;2022-08-11T00:20:41;14.10;99.90
57576;DHT22;43412;-33.800;150.804;2022-08-11T00:23:15;14.20;99.90
57576;DHT22;43412;-33.800;150.804;2022-08-11T00:25:49;14.20;99.90
57576;DHT22;43412;-33.800;150.804;2022-08-11T00:28:28;14.10;99.90
57576;DHT22;43412;-33.800;150.804;2022-08-11T00:30:59;14.20;99.90
57576;DHT22;43412;-33.800;150.804;2022-08-11T00:33:48;14.30;99.90
57576;DHT22;43412;-33.800;150.804;2022-08-11T00:36:19;14.30;99.90
57576;DHT22;43412;-33.800;150.804;2022-08-11T00:38:51;14.30;99.90
57576;DHT22;43412;-33.800;150.804;2022-08-11T00:49:51;14.20;99.90
57576;DHT22;43412;-33.800;150.804;2022-08-11T00:58:57;14.20;99.90
57576;DHT22;43412;-33.800;150.804;2022-08-11T01:01:53;14.20;99.90
57576;DHT22;43412;-33.800;150.804;2022-08-11T01:30:37;14.90;99.90
57576;DHT22;43412;-33.800;150.804;2022-08-11T01:39:29;15.70;99.90
57576;DHT22;43412;-33.800;150.804;2022-08-11T01:58:42;15.80;99.90
57576;DHT22;43412;-33.800;150.804;2022-08-11T02:03:59;16.00;99.90
57576;DHT22;43412;-33.800;150.804;2022-08-11T02:06:54;16.20;99.90
57576;DHT22;43412;-33.800;150.804;2022-08-11T02:12:30;16.40;99.90
57576;DHT22;43412;-33.800;150.804;2022-08-11T02:26:21;16.30;99.90
57576;DHT22;43412;-33.800;150.804;2022-08-11T02:34:44;16.10;99.90
57576;DHT22;43412;-33.800;150.804;2022-08-11T02:45:50;16.40;99.90
57576;DHT22;43412;-33.800;150.804;2022-08-11T02:53:58;16.90;99.90
57576;DHT22;43412;-33.800;150.804;2022-08-11T02:59:27;16.90;99.90
57576;DHT22;43412;-33.800;150.804;2022-08-11T03:13:18;17.00;99.90
57576;DHT22;43412;-33.800;150.804;2022-08-11T03:33:48;17.30;99.90
57576;DHT22;43412;-33.800;150.804;2022-08-11T03:36:58;17.00;99.90
57576;DHT22;43412;-33.800;150.804;2022-08-11T03:45:57;16.80;99.90
57576;DHT22;43412;-33.800;150.804;2022-08-11T03:49:00;16.70;99.90
57576;DHT22;43412;-33.800;150.804;2022-08-11T03:54:46;16.50;99.90
57576;DHT22;43412;-33.800;150.804;2022-08-11T03:57:59;16.60;99.90
57576;DHT22;43412;-33.800;150.804;2022-08-11T04:03:51;16.60;99.90
57576;DHT22;43412;-33.800;150.804;2022-08-11T04:06:41;16.60;99.90
57576;DHT22;43412;-33.800;150.804;2022-08-11T04:18:25;16.70;99.90
57576;DHT22;43412;-33.800;150.804;2022-08-11T04:57:46;15.90;99.90
57576;DHT22;43412;-33.800;150.804;2022-08-11T05:06:27;15.90;99.90
57576;DHT22;43412;-33.800;150.804;2022-08-11T05:15:23;15.80;99.90
57576;DHT22;43412;-33.800;150.804;2022-08-11T05:18:16;15.80;99.90
57576;DHT22;43412;-33.800;150.804;2022-08-11T05:21:10;15.80;99.90
57576;DHT22;43412;-33.800;150.804;2022-08-11T05:24:20;15.80;99.90
57576;DHT22;43412;-33.800;150.804;2022-08-11T05:27:11;15.70;99.90
57576;DHT22;43412;-33.800;150.804;2022-08-11T05:30:07;15.60;99.90
57576;DHT22;43412;-33.800;150.804;2022-08-11T05:33:16;15.60;99.90
57576;DHT22;43412;-33.800;150.804;2022-08-11T05:38:38;15.50;99.90
57576;DHT22;43412;-33.800;150.804;2022-08-11T05:41:26;15.50;99.90
57576;DHT22;43412;-33.800;150.804;2022-08-11T05:44:18;15.50;99.90
57576;DHT22;43412;-33.800;150.804;2022-08-11T05:47:05;15.60;99.90
57576;DHT22;43412;-33.800;150.804;2022-08-11T05:49:51;15.60;99.90
57576;DHT22;43412;-33.800;150.804;2022-08-11T05:52:37;15.60;99.90
57576;DHT22;43412;-33.800;150.804;2022-08-11T05:55:24;15.70;99.90
57576;DHT22;43412;-33.800;150.804;2022-08-11T05:58:11;15.70;99.90
57576;DHT22;43412;-33.800;150.804;2022-08-11T06:00:45;15.70;99.90
57576;DHT22;43412;-33.800;150.804;2022-08-11T06:03:25;15.70;99.90
57576;DHT22;43412;-33.800;150.804;2022-08-11T06:05:54;15.70;99.90
57576;DHT22;43412;-33.800;150.804;2022-08-11T06:08:31;15.70;99.90
57576;DHT22;43412;-33.800;150.804;2022-08-11T06:11:04;15.70;99.90
57576;DHT22;43412;-33.800;150.804;2022-08-11T06:13:32;15.60;99.90
57576;DHT22;43412;-33.800;150.804;2022-08-11T06:16:01;15.50;99.90
57576;DHT22;43412;-33.800;150.804;2022-08-11T06:18:29;15.50;99.90
57576;DHT22;43412;-33.800;150.804;2022-08-11T06:20:57;15.50;99.90
57576;DHT22;43412;-33.800;150.804;2022-08-11T06:23:31;15.50;99.90
57576;DHT22;43412;-33.800;150.804;2022-08-11T06:26:00;15.50;99.90
57576;DHT22;43412;-33.800;150.804;2022-08-11T06:28:36;15.50;99.90
57576;DHT22;43412;-33.800;150.804;2022-08-11T06:31:30;15.50;99.90
57576;DHT22;43412;-33.800;150.804;2022-08-11T06:34:11;15.50;99.90
57576;DHT22;43412;-33.800;150.804;2022-08-11T06:37:14;15.40;99.90
57576;DHT22;43412;-33.800;150.804;2022-08-11T06:39:51;15.30;99.90
57576;DHT22;43412;-33.800;150.804;2022-08-11T06:45:23;15.30;99.90
57576;DHT22;43412;-33.800;150.804;2022-08-11T06:47:53;15.20;99.90
57576;DHT22;43412;-33.800;150.804;2022-08-11T06:50:22;15.20;99.90
57576;DHT22;43412;-33.800;150.804;2022-08-11T06:53:08;15.20;99.90
57576;DHT22;43412;-33.800;150.804;2022-08-11T06:55:38;15.10;99.90
57576;DHT22;43412;-33.800;150.804;2022-08-11T06:58:33;15.10;99.90
57576;DHT22;43412;-33.800;150.804;2022-08-11T07:04:08;15.00;99.90
57576;DHT22;43412;-33.800;150.804;2022-08-11T07:09:38;14.90;99.90
57576;DHT22;43412;-33.800;150.804;2022-08-11T07:12:38;14.90;99.90
57576;DHT22;43412;-33.800;150.804;2022-08-11T07:15:31;14.90;99.90
57576;DHT22;43412;-33.800;150.804;2022-08-11T07:18:30;14.90;99.90
57576;DHT22;43412;-33.800;150.804;2022-08-11T07:24:32;14.90;99.90
57576;DHT22;43412;-33.800;150.804;2022-08-11T07:27:18;14.90;99.90
57576;DHT22;43412;-33.800;150.804;2022-08-11T07:30:08;14.80;99.90
57576;DHT22;43412;-33.800;150.804;2022-08-11T07:32:50;14.80;99.90
57576;DHT22;43412;-33.800;150.804;2022-08-11T07:35:28;14.80;99.90
57576;DHT22;43412;-33.800;150.804;2022-08-11T07:38:01;14.80;99.90
57576;DHT22;43412;-33.800;150.804;2022-08-11T07:40:28;14.80;99.90
57576;DHT22;43412;-33.800;150.804;2022-08-11T07:42:59;14.80;99.90
57576;DHT22;43412;-33.800;150.804;2022-08-11T07:45:27;14.70;99.90
57576;DHT22;43412;-33.800;150.804;2022-08-11T07:48:14;14.70;99.90
57576;DHT22;43412;-33.800;150.804;2022-08-11T07:51:01;14.70;99.90
57576;DHT22;43412;-33.800;150.804;2022-08-11T07:53:47;14.70;99.90
57576;DHT22;43412;-33.800;150.804;2022-08-11T07:56:18;14.60;99.90
57576;DHT22;43412;-33.800;150.804;2022-08-11T07:58:46;14.60;99.90
57576;DHT22;43412;-33.800;150.804;2022-08-11T08:01:31;14.70;99.90
57576;DHT22;43412;-33.800;150.804;2022-08-11T08:04:19;14.60;99.90
57576;DHT22;43412;-33.800;150.804;2022-08-11T08:07:04;14.60;99.90
57576;DHT22;43412;-33.800;150.804;2022-08-11T08:09:50;14.60;99.90
57576;DHT22;43412;-33.800;150.804;2022-08-11T08:12:37;14.60;99.90
57576;DHT22;43412;-33.800;150.804;2022-08-11T08:15:24;14.50;99.90
57576;DHT22;43412;-33.800;150.804;2022-08-11T08:18:10;14.50;99.90
57576;DHT22;43412;-33.800;150.804;2022-08-11T08:20:47;14.50;99.90
57576;DHT22;43412;-33.800;150.804;2022-08-11T08:23:25;14.50;99.90
57576;DHT22;43412;-33.800;150.804;2022-08-11T08:26:01;14.50;99.90
57576;DHT22;43412;-33.800;150.804;2022-08-11T08:28:30;14.50;99.90
57576;DHT22;43412;-33.800;150.804;2022-08-11T08:31:00;14.50;99.90
57576;DHT22;43412;-33.800;150.804;2022-08-11T08:33:29;14.50;99.90
57576;DHT22;43412;-33.800;150.804;2022-08-11T08:36:02;14.50;99.90
57576;DHT22;43412;-33.800;150.804;2022-08-11T08:38:49;14.50;99.90
57576;DHT22;43412;-33.800;150.804;2022-08-11T08:41:31;14.40;99.90
57576;DHT22;43412;-33.800;150.804;2022-08-11T08:44:00;14.40;99.90
57576;DHT22;43412;-33.800;150.804;2022-08-11T08:46:41;14.40;99.90
57576;DHT22;43412;-33.800;150.804;2022-08-11T08:49:14;14.30;99.90
57576;DHT22;43412;-33.800;150.804;2022-08-11T08:51:44;14.30;99.90
57576;DHT22;43412;-33.800;150.804;2022-08-11T08:54:35;14.30;99.90
57576;DHT22;43412;-33.800;150.804;2022-08-11T08:57:07;14.30;99.90
57576;DHT22;43412;-33.800;150.804;2022-08-11T08:59:43;14.40;99.90
57576;DHT22;43412;-33.800;150.804;2022-08-11T09:02:10;14.40;99.90
57576;DHT22;43412;-33.800;150.804;2022-08-11T09:04:44;14.40;99.90
57576;DHT22;43412;-33.800;150.804;2022-08-11T09:07:21;14.30;99.90
57576;DHT22;43412;-33.800;150.804;2022-08-11T09:09:51;14.40;99.90
57576;DHT22;43412;-33.800;150.804;2022-08-11T09:12:20;14.40;99.90
57576;DHT22;43412;-33.800;150.804;2022-08-11T09:14:49;14.30;99.90
57576;DHT22;43412;-33.800;150.804;2022-08-11T09:17:40;14.30;99.90
57576;DHT22;43412;-33.800;150.804;2022-08-11T09:20:27;14.40;99.90
57576;DHT22;43412;-33.800;150.804;2022-08-11T09:23:03;14.40;99.90
57576;DHT22;43412;-33.800;150.804;2022-08-11T09:25:59;14.40;99.90
57576;DHT22;43412;-33.800;150.804;2022-08-11T09:28:46;14.50;99.90
57576;DHT22;43412;-33.800;150.804;2022-08-11T09:31:15;14.50;99.90
57576;DHT22;43412;-33.800;150.804;2022-08-11T09:33:44;14.60;99.90
57576;DHT22;43412;-33.800;150.804;2022-08-11T09:36:12;14.70;99.90
57576;DHT22;43412;-33.800;150.804;2022-08-11T09:38:59;14.70;99.90
57576;DHT22;43412;-33.800;150.804;2022-08-11T09:41:47;14.70;99.90
57576;DHT22;43412;-33.800;150.804;2022-08-11T09:44:15;14.80;99.90
57576;DHT22;43412;-33.800;150.804;2022-08-11T09:47:01;14.70;99.90
57576;DHT22;43412;-33.800;150.804;2022-08-11T09:49:31;14.60;99.90
57576;DHT22;43412;-33.800;150.804;2022-08-11T09:52:00;14.60;99.90
57576;DHT22;43412;-33.800;150.804;2022-08-11T09:54:32;14.60;99.90
57576;DHT22;43412;-33.800;150.804;2022-08-11T09:56:59;14.60;99.90
57576;DHT22;43412;-33.800;150.804;2022-08-11T09:59:46;14.60;99.90
57576;DHT22;43412;-33.800;150.804;2022-08-11T10:02:15;14.60;99.90
57576;DHT22;43412;-33.800;150.804;2022-08-11T10:04:44;14.60;99.90
57576;DHT22;43412;-33.800;150.804;2022-08-11T10:07:14;14.60;99.90
57576;DHT22;43412;-33.800;150.804;2022-08-11T10:10:02;14.50;99.90
57576;DHT22;43412;-33.800;150.804;2022-08-11T10:12:36;14.50;99.90
57576;DHT22;43412;-33.800;150.804;2022-08-11T10:15:13;14.50;99.90
57576;DHT22;43412;-33.800;150.804;2022-08-11T10:18:17;14.50;99.90
57576;DHT22;43412;-33.800;150.804;2022-08-11T10:21:49;14.50;99.90
57576;DHT22;43412;-33.800;150.804;2022-08-11T10:24:00;14.50;99.90
57576;DHT22;43412;-33.800;150.804;2022-08-11T10:26:48;14.50;99.90
57576;DHT22;43412;-33.800;150.804;2022-08-11T10:29:26;14.40;99.90
57576;DHT22;43412;-33.800;150.804;2022-08-11T10:32:14;14.40;99.90
57576;DHT22;43412;-33.800;150.804;2022-08-11T10:35:03;14.40;99.90
57576;DHT22;43412;-33.800;150.804;2022-08-11T10:37:36;14.40;99.90
57576;DHT22;43412;-33.800;150.804;2022-08-11T10:40:05;14.40;99.90
57576;DHT22;43412;-33.800;150.804;2022-08-11T10:42:33;14.40;99.90
57576;DHT22;43412;-33.800;150.804;2022-08-11T10:45:18;14.40;99.90
57576;DHT22;43412;-33.800;150.804;2022-08-11T10:48:05;14.40;99.90
57576;DHT22;43412;-33.800;150.804;2022-08-11T10:50:33;14.30;99.90
57576;DHT22;43412;-33.800;150.804;2022-08-11T10:53:19;14.30;99.90
57576;DHT22;43412;-33.800;150.804;2022-08-11T10:56:05;14.20;99.90
57576;DHT22;43412;-33.800;150.804;2022-08-11T10:58:52;14.20;99.90
57576;DHT22;43412;-33.800;150.804;2022-08-11T11:01:33;14.10;99.90
57576;DHT22;43412;-33.800;150.804;2022-08-11T11:04:26;14.10;99.90
57576;DHT22;43412;-33.800;150.804;2022-08-11T11:12:29;14.00;99.90
57576;DHT22;43412;-33.800;150.804;2022-08-11T11:15:18;14.00;99.90
57576;DHT22;43412;-33.800;150.804;2022-08-11T11:18:28;14.00;99.90
57576;DHT22;43412;-33.800;150.804;2022-08-11T11:21:14;14.00;99.90
57576;DHT22;43412;-33.800;150.804;2022-08-11T11:26:48;13.90;99.90
57576;DHT22;43412;-33.800;150.804;2022-08-11T11:37:37;13.90;99.90
57576;DHT22;43412;-33.800;150.804;2022-08-11T11:40:20;13.90;99.90
57576;DHT22;43412;-33.800;150.804;2022-08-11T11:42:50;13.90;99.90
57576;DHT22;43412;-33.800;150.804;2022-08-11T11:45:20;13.90;99.90
57576;DHT22;43412;-33.800;150.804;2022-08-11T11:47:49;13.90;99.90
57576;DHT22;43412;-33.800;150.804;2022-08-11T11:50:29;13.80;99.90
57576;DHT22;43412;-33.800;150.804;2022-08-11T11:52:59;13.80;99.90
57576;DHT22;43412;-33.800;150.804;2022-08-11T11:55:28;13.70;99.90
57576;DHT22;43412;-33.800;150.804;2022-08-11T11:58:00;13.70;99.90
57576;DHT22;43412;-33.800;150.804;2022-08-11T12:00:47;13.80;99.90
57576;DHT22;43412;-33.800;150.804;2022-08-11T12:03:33;13.70;99.90
57576;DHT22;43412;-33.800;150.804;2022-08-11T12:06:03;13.70;99.90
57576;DHT22;43412;-33.800;150.804;2022-08-11T12:08:33;13.80;99.90
57576;DHT22;43412;-33.800;150.804;2022-08-11T12:11:02;13.80;99.90
57576;DHT22;43412;-33.800;150.804;2022-08-11T12:13:51;13.70;99.90
57576;DHT22;43412;-33.800;150.804;2022-08-11T12:16:21;13.70;99.90
57576;DHT22;43412;-33.800;150.804;2022-08-11T12:18:54;13.70;99.90
57576;DHT22;43412;-33.800;150.804;2022-08-11T12:21:23;13.70;99.90
57576;DHT22;43412;-33.800;150.804;2022-08-11T12:23:52;13.70;99.90
57576;DHT22;43412;-33.800;150.804;2022-08-11T12:26:39;13.70;99.90
57576;DHT22;43412;-33.800;150.804;2022-08-11T12:29:19;13.70;99.90
57576;DHT22;43412;-33.800;150.804;2022-08-11T12:31:48;13.70;99.90
57576;DHT22;43412;-33.800;150.804;2022-08-11T12:34:16;13.60;99.90
57576;DHT22;43412;-33.800;150.804;2022-08-11T12:37:01;13.60;99.90
57576;DHT22;43412;-33.800;150.804;2022-08-11T12:39:36;13.60;99.90
57576;DHT22;43412;-33.800;150.804;2022-08-11T12:42:22;13.50;99.90
57576;DHT22;43412;-33.800;150.804;2022-08-11T12:45:11;13.50;99.90
57576;DHT22;43412;-33.800;150.804;2022-08-11T12:48:08;13.40;99.90
57576;DHT22;43412;-33.800;150.804;2022-08-11T12:51:01;13.40;99.90
57576;DHT22;43412;-33.800;150.804;2022-08-11T12:54:13;13.40;99.90
57576;DHT22;43412;-33.800;150.804;2022-08-11T12:56:49;13.40;99.90
57576;DHT22;43412;-33.800;150.804;2022-08-11T12:59:37;13.40;99.90
57576;DHT22;43412;-33.800;150.804;2022-08-11T13:02:23;13.50;99.90
57576;DHT22;43412;-33.800;150.804;2022-08-11T13:05:12;13.60;99.90
57576;DHT22;43412;-33.800;150.804;2022-08-11T13:07:42;13.60;99.90
57576;DHT22;43412;-33.800;150.804;2022-08-11T13:10:13;13.50;99.90
57576;DHT22;43412;-33.800;150.804;2022-08-11T13:12:41;13.50;99.90
57576;DHT22;43412;-33.800;150.804;2022-08-11T13:15:21;13.50;99.90
57576;DHT22;43412;-33.800;150.804;2022-08-11T13:17:52;13.50;99.90
57576;DHT22;43412;-33.800;150.804;2022-08-11T13:20:22;13.50;99.90
57576;DHT22;43412;-33.800;150.804;2022-08-11T13:22:55;13.50;99.90
57576;DHT22;43412;-33.800;150.804;2022-08-11T13:25:24;13.50;99.90
57576;DHT22;43412;-33.800;150.804;2022-08-11T13:27:55;13.50;99.90
57576;DHT22;43412;-33.800;150.804;2022-08-11T13:30:28;13.50;99.90
57576;DHT22;43412;-33.800;150.804;2022-08-11T13:33:15;13.60;99.90
57576;DHT22;43412;-33.800;150.804;2022-08-11T13:35:45;13.60;99.90
57576;DHT22;43412;-33.800;150.804;2022-08-11T13:38:19;13.70;99.90
57576;DHT22;43412;-33.800;150.804;2022-08-11T13:40:48;13.60;99.90
57576;DHT22;43412;-33.800;150.804;2022-08-11T13:43:19;13.60;99.90
57576;DHT22;43412;-33.800;150.804;2022-08-11T13:45:48;13.60;99.90
57576;DHT22;43412;-33.800;150.804;2022-08-11T13:48:18;13.60;99.90
57576;DHT22;43412;-33.800;150.804;2022-08-11T13:50:46;13.60;99.90
57576;DHT22;43412;-33.800;150.804;2022-08-11T13:53:32;13.60;99.90
57576;DHT22;43412;-33.800;150.804;2022-08-11T13:56:00;13.50;99.90
57576;DHT22;43412;-33.800;150.804;2022-08-11T13:58:28;13.50;99.90
57576;DHT22;43412;-33.800;150.804;2022-08-11T14:00:57;13.50;99.90
57576;DHT22;43412;-33.800;150.804;2022-08-11T14:03:27;13.40;99.90
57576;DHT22;43412;-33.800;150.804;2022-08-11T14:05:57;13.40;99.90
57576;DHT22;43412;-33.800;150.804;2022-08-11T14:08:31;13.40;99.90
57576;DHT22;43412;-33.800;150.804;2022-08-11T14:11:02;13.40;99.90
57576;DHT22;43412;-33.800;150.804;2022-08-11T14:13:50;13.40;99.90
57576;DHT22;43412;-33.800;150.804;2022-08-11T14:16:32;13.40;99.90
57576;DHT22;43412;-33.800;150.804;2022-08-11T14:19:08;13.40;99.90
57576;DHT22;43412;-33.800;150.804;2022-08-11T14:21:41;13.40;99.90
57576;DHT22;43412;-33.800;150.804;2022-08-11T14:24:27;13.40;99.90
57576;DHT22;43412;-33.800;150.804;2022-08-11T14:26:55;13.40;99.90
57576;DHT22;43412;-33.800;150.804;2022-08-11T14:29:25;13.40;99.90
57576;DHT22;43412;-33.800;150.804;2022-08-11T14:31:54;13.40;99.90
57576;DHT22;43412;-33.800;150.804;2022-08-11T14:34:25;13.40;99.90
57576;DHT22;43412;-33.800;150.804;2022-08-11T14:36:58;13.40;99.90
57576;DHT22;43412;-33.800;150.804;2022-08-11T14:39:30;13.40;99.90
57576;DHT22;43412;-33.800;150.804;2022-08-11T14:42:06;13.40;99.90
57576;DHT22;43412;-33.800;150.804;2022-08-11T14:44:57;13.50;99.90
57576;DHT22;43412;-33.800;150.804;2022-08-11T14:47:47;13.50;99.90
57576;DHT22;43412;-33.800;150.804;2022-08-11T14:50:18;13.50;99.90
57576;DHT22;43412;-33.800;150.804;2022-08-11T14:53:11;13.50;99.90
57576;DHT22;43412;-33.800;150.804;2022-08-11T14:55:40;13.50;99.90
57576;DHT22;43412;-33.800;150.804;2022-08-11T14:58:28;13.50;99.90
57576;DHT22;43412;-33.800;150.804;2022-08-11T15:00:58;13.50;99.90
57576;DHT22;43412;-33.800;150.804;2022-08-11T15:03:28;13.60;99.90
57576;DHT22;43412;-33.800;150.804;2022-08-11T15:05:59;13.60;99.90
57576;DHT22;43412;-33.800;150.804;2022-08-11T15:08:38;13.60;99.90
57576;DHT22;43412;-33.800;150.804;2022-08-11T15:11:27;13.60;99.90
57576;DHT22;43412;-33.800;150.804;2022-08-11T15:14:14;13.60;99.90
57576;DHT22;43412;-33.800;150.804;2022-08-11T15:17:01;13.70;99.90
57576;DHT22;43412;-33.800;150.804;2022-08-11T15:19:38;13.60;99.90
57576;DHT22;43412;-33.800;150.804;2022-08-11T15:22:25;13.70;99.90
57576;DHT22;43412;-33.800;150.804;2022-08-11T15:25:11;13.70;99.90
57576;DHT22;43412;-33.800;150.804;2022-08-11T15:27:39;13.70;99.90
57576;DHT22;43412;-33.800;150.804;2022-08-11T15:30:26;13.70;99.90
57576;DHT22;43412;-33.800;150.804;2022-08-11T15:33:14;13.70;99.90
57576;DHT22;43412;-33.800;150.804;2022-08-11T15:36:04;13.60;99.90
57576;DHT22;43412;-33.800;150.804;2022-08-11T15:39:17;13.70;99.90
57576;DHT22;43412;-33.800;150.804;2022-08-11T15:42:06;13.70;99.90
57576;DHT22;43412;-33.800;150.804;2022-08-11T15:44:57;13.70;99.90
57576;DHT22;43412;-33.800;150.804;2022-08-11T15:48:00;13.70;99.90
57576;DHT22;43412;-33.800;150.804;2022-08-11T15:50:33;13.70;99.90
57576;DHT22;43412;-33.800;150.804;2022-08-11T15:53:19;13.70;99.90
57576;DHT22;43412;-33.800;150.804;2022-08-11T15:55:50;13.70;99.90
57576;DHT22;43412;-33.800;150.804;2022-08-11T15:58:19;13.60;99.90
57576;DHT22;43412;-33.800;150.804;2022-08-11T16:01:07;13.60;99.90
57576;DHT22;43412;-33.800;150.804;2022-08-11T16:04:02;13.60;99.90
57576;DHT22;43412;-33.800;150.804;2022-08-11T16:07:11;13.60;99.90
57576;DHT22;43412;-33.800;150.804;2022-08-11T16:10:06;13.70;99.90
57576;DHT22;43412;-33.800;150.804;2022-08-11T16:12:56;13.70;99.90
57576;DHT22;43412;-33.800;150.804;2022-08-11T16:15:46;13.70;99.90
57576;DHT22;43412;-33.800;150.804;2022-08-11T16:18:47;13.70;99.90
57576;DHT22;43412;-33.800;150.804;2022-08-11T16:21:20;13.70;99.90
57576;DHT22;43412;-33.800;150.804;2022-08-11T16:23:53;13.70;99.90
57576;DHT22;43412;-33.800;150.804;2022-08-11T16:26:22;13.70;99.90
57576;DHT22;43412;-33.800;150.804;2022-08-11T16:28:56;13.70;99.90
57576;DHT22;43412;-33.800;150.804;2022-08-11T16:31:25;13.70;99.90
57576;DHT22;43412;-33.800;150.804;2022-08-11T16:33:54;13.70;99.90
57576;DHT22;43412;-33.800;150.804;2022-08-11T16:36:23;13.80;99.90
57576;DHT22;43412;-33.800;150.804;2022-08-11T16:39:11;13.80;99.90
57576;DHT22;43412;-33.800;150.804;2022-08-11T16:41:44;13.80;99.90
57576;DHT22;43412;-33.800;150.804;2022-08-11T16:44:32;13.80;99.90
57576;DHT22;43412;-33.800;150.804;2022-08-11T16:47:19;13.80;99.90
57576;DHT22;43412;-33.800;150.804;2022-08-11T16:49:51;13.80;99.90
57576;DHT22;43412;-33.800;150.804;2022-08-11T16:52:21;13.80;99.90
57576;DHT22;43412;-33.800;150.804;2022-08-11T16:54:49;13.90;99.90
57576;DHT22;43412;-33.800;150.804;2022-08-11T16:57:26;13.90;99.90
57576;DHT22;43412;-33.800;150.804;2022-08-11T17:00:16;13.90;99.90
57576;DHT22;43412;-33.800;150.804;2022-08-11T17:02:52;14.00;99.90
57576;DHT22;43412;-33.800;150.804;2022-08-11T17:05:44;14.00;99.90
57576;DHT22;43412;-33.800;150.804;2022-08-11T17:08:51;14.00;99.90
57576;DHT22;43412;-33.800;150.804;2022-08-11T17:11:48;14.00;99.90
57576;DHT22;43412;-33.800;150.804;2022-08-11T17:14:51;14.00;99.90
57576;DHT22;43412;-33.800;150.804;2022-08-11T17:17:48;14.00;99.90
57576;DHT22;43412;-33.800;150.804;2022-08-11T17:20:15;14.10;99.90
57576;DHT22;43412;-33.800;150.804;2022-08-11T17:22:45;14.00;99.90
57576;DHT22;43412;-33.800;150.804;2022-08-11T17:25:31;14.10;99.90
57576;DHT22;43412;-33.800;150.804;2022-08-11T17:27:59;14.10;99.90
57576;DHT22;43412;-33.800;150.804;2022-08-11T17:30:29;14.10;99.90
57576;DHT22;43412;-33.800;150.804;2022-08-11T17:33:16;14.10;99.90
57576;DHT22;43412;-33.800;150.804;2022-08-11T17:36:03;14.10;99.90
57576;DHT22;43412;-33.800;150.804;2022-08-11T17:38:31;14.10;99.90
57576;DHT22;43412;-33.800;150.804;2022-08-11T17:41:01;14.10;99.90
57576;DHT22;43412;-33.800;150.804;2022-08-11T17:43:47;14.20;99.90
57576;DHT22;43412;-33.800;150.804;2022-08-11T17:46:46;14.20;99.90
57576;DHT22;43412;-33.800;150.804;2022-08-11T17:49:34;14.10;99.90
57576;DHT22;43412;-33.800;150.804;2022-08-11T17:52:06;14.20;99.90
57576;DHT22;43412;-33.800;150.804;2022-08-11T17:54:52;14.10;99.90
57576;DHT22;43412;-33.800;150.804;2022-08-11T17:57:39;14.20;99.90
57576;DHT22;43412;-33.800;150.804;2022-08-11T18:00:25;14.10;99.90
57576;DHT22;43412;-33.800;150.804;2022-08-11T18:02:55;14.10;99.90
57576;DHT22;43412;-33.800;150.804;2022-08-11T18:05:43;14.10;99.90
57576;DHT22;43412;-33.800;150.804;2022-08-11T18:08:12;14.20;99.90
57576;DHT22;43412;-33.800;150.804;2022-08-11T18:11:00;14.20;99.90
57576;DHT22;43412;-33.800;150.804;2022-08-11T18:13:46;14.20;99.90
57576;DHT22;43412;-33.800;150.804;2022-08-11T18:16:31;14.20;99.90
57576;DHT22;43412;-33.800;150.804;2022-08-11T18:19:16;14.20;99.90
57576;DHT22;43412;-33.800;150.804;2022-08-11T18:22:15;14.10;99.90
57576;DHT22;43412;-33.800;150.804;2022-08-11T18:25:14;14.10;99.90
57576;DHT22;43412;-33.800;150.804;2022-08-11T18:28:02;14.10;99.90
57576;DHT22;43412;-33.800;150.804;2022-08-11T18:30:50;14.10;99.90
57576;DHT22;43412;-33.800;150.804;2022-08-11T18:33:51;14.20;99.90
57576;DHT22;43412;-33.800;150.804;2022-08-11T18:40:06;14.10;99.90
57576;DHT22;43412;-33.800;150.804;2022-08-11T18:42:54;14.10;99.90
57576;DHT22;43412;-33.800;150.804;2022-08-11T18:45:42;14.10;99.90
57576;DHT22;43412;-33.800;150.804;2022-08-11T18:48:30;14.00;99.90
57576;DHT22;43412;-33.800;150.804;2022-08-11T18:51:17;14.10;99.90
57576;DHT22;43412;-33.800;150.804;2022-08-11T18:54:03;14.10;99.90
57576;DHT22;43412;-33.800;150.804;2022-08-11T18:56:51;14.00;99.90
57576;DHT22;43412;-33.800;150.804;2022-08-11T18:59:39;14.00;99.90
57576;DHT22;43412;-33.800;150.804;2022-08-11T19:02:27;14.00;99.90
57576;DHT22;43412;-33.800;150.804;2022-08-11T19:05:16;14.00;99.90
57576;DHT22;43412;-33.800;150.804;2022-08-11T19:08:03;13.90;99.90
57576;DHT22;43412;-33.800;150.804;2022-08-11T19:10:50;13.80;99.90
57576;DHT22;43412;-33.800;150.804;2022-08-11T19:13:37;13.90;99.90
57576;DHT22;43412;-33.800;150.804;2022-08-11T19:16:24;13.80;99.90
57576;DHT22;43412;-33.800;150.804;2022-08-11T19:19:12;13.80;99.90
57576;DHT22;43412;-33.800;150.804;2022-08-11T19:21:59;13.70;99.90
57576;DHT22;43412;-33.800;150.804;2022-08-11T19:24:48;13.70;99.90
57576;DHT22;43412;-33.800;150.804;2022-08-11T19:27:36;13.70;99.90
57576;DHT22;43412;-33.800;150.804;2022-08-11T19:30:22;13.70;99.90
57576;DHT22;43412;-33.800;150.804;2022-08-11T19:33:08;13.70;99.90
57576;DHT22;43412;-33.800;150.804;2022-08-11T19:35:54;13.70;99.90
57576;DHT22;43412;-33.800;150.804;2022-08-11T19:38:41;13.70;99.90
57576;DHT22;43412;-33.800;150.804;2022-08-11T19:41:28;13.70;99.90
57576;DHT22;43412;-33.800;150.804;2022-08-11T19:44:15;13.70;99.90
57576;DHT22;43412;-33.800;150.804;2022-08-11T19:47:01;13.60;99.90
57576;DHT22;43412;-33.800;150.804;2022-08-11T19:49:47;13.60;99.90
57576;DHT22;43412;-33.800;150.804;2022-08-11T19:52:34;13.50;99.90
57576;DHT22;43412;-33.800;150.804;2022-08-11T19:55:20;13.50;99.90
57576;DHT22;43412;-33.800;150.804;2022-08-11T19:58:05;13.50;99.90
57576;DHT22;43412;-33.800;150.804;2022-08-11T20:00:51;13.50;99.90
57576;DHT22;43412;-33.800;150.804;2022-08-11T20:03:36;13.40;99.90
57576;DHT22;43412;-33.800;150.804;2022-08-11T20:06:22;13.40;99.90